Time;durP1;ratioP1;P1;durP2;ratioP2;P2;SDS_P1;SDS_P2;PMS_P1;PMS_P2;Temp;Humidity;BMP_temperature;BMP_pressure;BME280_temperature;BME280_humidity;BME280_pressure;Samples;Min_cycle;Max_cycle;Signal;HPM_P1;HPM_P2
2022/05/02 00:03:54;;;;;;;3.00;2.70;;;;;;;17.22;52.70;96679.69;10354472;28;20039;-22
2022/05/02 00:08:54;;;;;;;2.87;2.50;;;;;;;17.22;52.72;96665.38;10328380;28;20042;-22
2022/05/02 00:13:55;;;;;;;2.73;2.53;;;;;;;17.22;52.58;96669.56;10326979;28;20324;-24
2022/05/02 00:18:55;;;;;;;3.07;2.83;;;;;;;17.21;52.85;96662.84;10363088;28;20038;-24
2022/05/02 00:23:55;;;;;;;3.00;2.70;;;;;;;17.21;52.74;96656.09;10336036;28;20488;-23
2022/05/02 00:28:56;;;;;;;2.93;2.73;;;;;;;17.20;53.04;96648.50;10335083;28;20113;-23
2022/05/02 00:33:56;;;;;;;2.77;2.57;;;;;;;17.22;52.62;96656.94;10424527;28;20530;-22
2022/05/02 00:38:57;;;;;;;2.87;2.67;;;;;;;17.19;52.84;96639.22;10335751;28;20293;-22
2022/05/02 00:43:57;;;;;;;2.65;2.45;;;;;;;17.30;55.62;96656.13;10335115;28;20038;-22
2022/05/02 00:48:57;;;;;;;2.97;2.70;;;;;;;17.35;55.65;96643.50;10334864;28;20493;-22
2022/05/02 00:53:58;;;;;;;4.03;2.67;;;;;;;17.31;54.02;96644.34;10370490;28;20076;-22
2022/05/02 00:59:00;;;;;;;2.87;2.67;;;;;;;17.28;53.15;96634.19;10340611;28;20065;-23
2022/05/02 01:04:00;;;;;;;3.70;3.40;;;;;;;17.26;52.97;96643.47;10333689;28;20333;-22
2022/05/02 01:09:01;;;;;;;2.77;2.50;;;;;;;17.26;52.96;96635.88;10333750;28;20034;-22
2022/05/02 01:14:02;;;;;;;2.80;2.53;;;;;;;17.25;52.88;96634.19;10332859;28;20297;-24
2022/05/02 01:19:02;;;;;;;2.60;2.40;;;;;;;17.25;52.88;96636.72;10371250;28;20029;-22
2022/05/02 01:24:04;;;;;;;2.45;2.25;;;;;;;17.20;52.89;96639.22;10373247;28;20276;-23
2022/05/02 01:29:06;;;;;;;2.65;1.90;;;;;;;17.23;52.81;96623.22;10338397;28;20034;-23
2022/05/02 01:34:06;;;;;;;2.78;2.58;;;;;;;17.23;53.01;96638.41;10399247;28;20129;-22
2022/05/02 01:39:07;;;;;;;2.53;2.33;;;;;;;17.24;52.96;96632.50;10373060;28;20591;-22
2022/05/02 01:44:08;;;;;;;2.20;2.00;;;;;;;17.23;53.13;96621.53;10336634;28;20454;-22
2022/05/02 01:49:08;;;;;;;2.72;2.45;;;;;;;17.31;55.54;96619.03;10331995;28;20428;-23
2022/05/02 01:54:08;;;;;;;3.60;2.45;;;;;;;17.34;55.55;96619.88;10331490;28;20444;-23
2022/05/02 01:59:10;;;;;;;3.67;2.43;;;;;;;17.31;54.62;96616.50;10365683;28;20026;-23
2022/05/02 02:09:29;;;;;;;2.83;2.40;;;;;;;17.09;54.44;96597.03;10333025;28;20092;-23
2022/05/02 02:14:29;;;;;;;2.73;2.53;;;;;;;17.24;53.20;96618.16;10367495;28;20065;-22
2022/05/02 02:19:29;;;;;;;2.37;2.10;;;;;;;17.26;53.94;96615.63;10370382;28;20026;-23
2022/05/02 02:24:30;;;;;;;4.13;2.33;;;;;;;17.26;53.20;96615.63;10371003;28;20551;-22
2022/05/02 02:29:30;;;;;;;2.00;1.90;;;;;;;17.23;53.65;96605.53;10335142;28;20034;-24
2022/05/02 02:34:31;;;;;;;2.60;2.30;;;;;;;17.24;53.30;96604.69;10411658;28;20392;-23
2022/05/02 02:39:31;;;;;;;2.97;2.50;;;;;;;17.23;53.46;96605.53;10330145;28;20038;-23
2022/05/02 02:44:32;;;;;;;2.33;2.13;;;;;;;17.24;53.36;96605.50;10329086;28;20038;-22
2022/05/02 02:49:32;;;;;;;3.23;2.40;;;;;;;17.24;53.81;96599.63;10329837;28;20293;-23
2022/05/02 02:54:32;;;;;;;2.60;2.40;;;;;;;17.29;55.62;96591.19;10329301;28;20038;-23
2022/05/02 02:59:33;;;;;;;2.83;2.63;;;;;;;17.30;55.39;96576.84;10329271;28;20297;-22
2022/05/02 03:09:53;;;;;;;4.80;2.60;;;;;;;17.28;53.90;96583.59;10328990;28;20034;-23
2022/05/02 03:14:54;;;;;;;3.15;2.28;;;;;;;17.26;52.94;96583.56;10369172;28;20554;-23
2022/05/02 03:19:54;;;;;;;3.53;2.57;;;;;;;17.25;53.87;96578.53;10366841;28;20037;-23
2022/05/02 03:24:55;;;;;;;2.73;2.53;;;;;;;17.24;53.49;96572.63;10327891;28;20300;-24
2022/05/02 03:29:55;;;;;;;3.40;2.20;;;;;;;17.24;54.19;96566.72;10336522;28;20295;-22
2022/05/02 03:34:55;;;;;;;2.50;2.30;;;;;;;17.25;53.59;96568.41;10368149;28;20291;-22
2022/05/02 03:39:56;;;;;;;2.40;2.20;;;;;;;17.25;53.46;96563.34;10328236;28;20357;-22
2022/05/02 03:44:56;;;;;;;2.20;2.00;;;;;;;17.24;53.30;96564.19;10362068;28;20035;-21
2022/05/02 03:49:56;;;;;;;2.63;2.40;;;;;;;17.26;53.28;96562.50;10348947;28;20825;-23
2022/05/02 03:54:57;;;;;;;3.23;2.50;;;;;;;17.26;53.55;96567.56;10357533;28;20026;-23
2022/05/02 03:59:57;;;;;;;2.63;2.40;;;;;;;17.31;54.63;96559.13;10327682;28;20034;-22
2022/05/02 04:04:58;;;;;;;2.50;2.30;;;;;;;17.35;54.50;96562.53;10345573;28;20173;-22
2022/05/02 04:09:58;;;;;;;2.55;2.05;;;;;;;17.37;54.16;96560.88;10365434;28;20297;-22
2022/05/02 04:14:58;;;;;;;2.42;2.22;;;;;;;17.30;53.52;96543.94;10333368;28;20034;-22
2022/05/02 04:19:59;;;;;;;2.53;2.30;;;;;;;17.39;53.82;96556.66;10351772;28;20045;-22
2022/05/02 04:24:59;;;;;;;2.50;2.30;;;;;;;17.38;53.47;96565.06;10326733;28;20042;-22
2022/05/02 04:30:00;;;;;;;2.50;2.30;;;;;;;17.41;53.81;96563.41;10359908;28;20323;-22
2022/05/02 04:35:00;;;;;;;2.63;2.15;;;;;;;17.41;53.35;96565.09;10405919;28;20106;-24
2022/05/02 04:40:00;;;;;;;3.53;2.03;;;;;;;17.41;53.52;96563.41;10326886;28;20088;-24
2022/05/02 04:45:01;;;;;;;4.17;2.50;;;;;;;17.38;53.15;96560.03;10366616;28;20038;-23
2022/05/02 04:50:02;;;;;;;5.97;2.90;;;;;;;17.40;53.55;96563.41;10357368;28;20404;-23
2022/05/02 04:55:02;;;;;;;2.55;2.22;;;;;;;17.41;53.58;96565.09;10326187;28;20441;-24
2022/05/02 05:00:03;;;;;;;4.57;2.28;;;;;;;17.42;52.89;96561.72;10326032;28;20026;-22
2022/05/02 05:05:04;;;;;;;4.63;3.47;;;;;;;17.35;53.92;96554.94;10326639;28;20054;-22
2022/05/02 05:10:06;;;;;;;12.70;4.07;;;;;;;17.23;52.23;96557.44;10332601;28;20048;-24
2022/05/02 05:20:51;;;;;;;5.18;2.65;;;;;;;17.39;53.24;96561.69;10381246;28;20303;-23
2022/05/02 05:26:00;;;;;;;4.75;2.50;;;;;;;17.40;53.00;96560.88;10364658;28;20031;-23
2022/05/02 05:31:31;;;;;;;3.95;2.88;;;;;;;17.40;53.11;96558.34;10359563;28;20644;-23
2022/05/02 05:36:41;;;;;;;5.75;3.20;;;;;;;17.35;52.69;96554.94;10405646;28;20081;-23
2022/05/02 05:42:07;;;;;;;8.27;2.97;;;;;;;17.37;53.39;96564.25;10332397;28;20041;-22
2022/05/02 05:47:11;;;;;;;5.73;3.53;;;;;;;17.40;53.61;96565.94;10332947;28;20038;-22
2022/05/02 05:52:33;;;;;;;4.13;2.70;;;;;;;17.39;53.71;96566.75;10360283;28;20459;-23
2022/05/02 05:58:12;;;;;;;4.28;3.08;;;;;;;17.39;53.39;96569.28;10350955;28;20084;-24
2022/05/02 06:03:21;;;;;;;4.28;2.83;;;;;;;17.38;53.44;96560.88;10331635;28;20093;-22
2022/05/02 06:08:22;;;;;;;4.80;2.63;;;;;;;17.38;53.54;96565.06;10332191;28;20129;-22
2022/05/02 06:13:27;;;;;;;5.05;2.50;;;;;;;17.38;54.40;96555.81;10331136;28;20046;-23
2022/05/02 06:18:31;;;;;;;3.28;2.30;;;;;;;17.42;54.37;96554.13;10361587;28;20034;-22
2022/05/02 06:23:44;;;;;;;4.30;2.28;;;;;;;17.42;54.53;96556.66;10331105;28;20038;-23
2022/05/02 06:28:46;;;;;;;3.42;2.50;;;;;;;17.40;53.83;96551.59;10361542;28;20034;-23
2022/05/02 06:33:49;;;;;;;2.50;2.30;;;;;;;17.35;53.88;96549.88;10371379;28;20041;-22
2022/05/02 06:39:03;;;;;;;3.58;2.38;;;;;;;17.34;53.57;96553.25;10361068;28;20496;-22
2022/05/02 06:44:11;;;;;;;3.38;2.15;;;;;;;17.35;54.27;96545.66;10352462;28;20061;-23
2022/05/02 06:49:12;;;;;;;3.35;1.80;;;;;;;17.30;53.56;96543.94;10369446;28;20041;-23
2022/05/02 06:54:19;;;;;;;12.90;2.70;;;;;;;17.37;54.37;96543.16;10328848;28;20050;-24
2022/05/02 06:59:44;;;;;;;5.80;2.70;;;;;;;17.36;54.08;96537.25;10329629;28;20034;-22
2022/05/02 07:04:52;;;;;;;3.47;2.35;;;;;;;17.38;54.41;96540.63;10329472;28;20081;-22
2022/05/02 07:10:01;;;;;;;3.17;2.05;;;;;;;17.38;53.93;96539.78;10328904;28;20045;-23
2022/05/02 07:15:16;;;;;;;9.18;3.00;;;;;;;17.40;54.39;96536.41;10335190;28;20496;-22
2022/05/02 07:20:31;;;;;;;5.57;3.08;;;;;;;17.43;53.68;96538.09;10355874;28;20324;-23
2022/05/02 07:25:38;;;;;;;2.88;2.17;;;;;;;17.42;54.92;96539.78;10328192;28;20034;-23
2022/05/02 07:30:39;;;;;;;3.63;2.22;;;;;;;17.41;54.58;96542.34;10348240;28;20037;-22
2022/05/02 07:35:42;;;;;;;4.10;2.20;;;;;;;17.21;54.31;96521.16;10408805;28;20041;-23
2022/05/02 07:41:22;;;;;;;2.35;2.15;;;;;;;17.37;53.38;96535.56;10334947;28;20033;-23
2022/05/02 07:46:07;;;;;;;9.73;2.60;;;;;;;17.39;54.93;96536.41;10327450;28;20229;-23
2022/05/02 07:51:09;;;;;;;5.60;2.65;;;;;;;17.34;54.58;96535.53;10327862;28;20451;-23
2022/05/02 07:56:12;;;;;;;4.80;3.08;;;;;;;17.35;54.78;96539.75;10327470;28;20039;-24
2022/05/02 08:01:17;;;;;;;9.55;3.63;;;;;;;17.34;54.29;96535.53;10327216;28;20535;-22
2022/05/02 08:06:43;;;;;;;4.65;3.03;;;;;;;17.34;54.06;96543.13;10327136;28;20069;-22
2022/05/02 08:12:07;;;;;;;15.13;3.38;;;;;;;17.31;54.36;96538.91;10327709;28;20425;-23
2022/05/02 08:17:40;;;;;;;11.43;3.60;;;;;;;17.32;55.05;96540.59;10351088;28;20049;-22
2022/05/02 08:28:10;;;;;;;7.22;3.33;;;;;;;17.42;57.50;96537.25;10365015;28;20546;-23
2022/05/02 08:33:18;;;;;;;3.60;2.97;;;;;;;17.46;57.11;96538.09;10381624;28;20046;-24
2022/05/02 08:38:37;;;;;;;6.95;3.67;;;;;;;17.41;57.30;96534.75;10366967;28;20042;-22
2022/05/02 08:43:43;;;;;;;5.22;2.60;;;;;;;17.36;54.29;96524.63;10372536;28;20076;-23
2022/05/02 08:49:35;;;;;;;5.73;2.97;;;;;;;17.36;54.13;96521.22;10374970;28;20033;-23
2022/05/02 08:54:53;;;;;;;7.78;2.65;;;;;;;17.34;54.66;96530.47;10333630;28;20117;-22
2022/05/02 09:00:38;;;;;;;4.75;2.95;;;;;;;17.32;54.16;96524.56;10373910;28;20033;-23
2022/05/02 09:05:44;;;;;;;7.85;3.45;;;;;;;17.33;55.48;96521.19;10328129;28;20042;-24
2022/05/02 09:11:31;;;;;;;7.00;2.38;;;;;;;17.33;54.60;96521.19;10332350;28;20054;-23
2022/05/02 09:17:03;;;;;;;5.65;3.13;;;;;;;17.33;54.22;96516.13;10352037;28;20038;-23
2022/05/02 09:22:09;;;;;;;6.60;2.65;;;;;;;17.35;53.99;96516.97;10352147;28;20046;-22
2022/05/02 09:27:31;;;;;;;9.68;4.05;;;;;;;17.35;54.00;96522.03;10351007;28;20087;-22
2022/05/02 09:32:57;;;;;;;8.25;3.58;;;;;;;17.42;57.65;96516.19;10390439;28;20107;-22
2022/05/02 09:38:03;;;;;;;4.50;3.45;;;;;;;17.47;57.44;96504.34;10373921;28;20120;-22
2022/05/02 10:05:45;;;;;;;4.90;3.00;;;;;;;17.34;54.20;96493.34;10330888;28;20573;-23
2022/05/02 10:11:00;;;;;;;6.80;4.10;;;;;;;17.35;54.12;96491.66;10331417;28;20037;-23
2022/05/02 10:16:26;;;;;;;6.03;3.97;;;;;;;17.40;54.48;96492.56;10345462;28;20505;-22
2022/05/02 10:21:47;;;;;;;5.65;3.40;;;;;;;17.40;54.31;96487.50;10360651;28;20572;-23
2022/05/02 10:26:55;;;;;;;8.05;2.97;;;;;;;17.34;54.28;96467.22;10329559;28;20089;-22
2022/05/02 10:32:05;;;;;;;3.70;3.28;;;;;;;17.42;54.09;96478.22;10372158;28;20389;-23
2022/05/02 10:37:06;;;;;;;7.75;4.30;;;;;;;17.46;55.83;96473.16;10343733;28;20022;-24
2022/05/02 10:42:10;;;;;;;19.80;5.38;;;;;;;17.53;56.87;96471.47;10347383;28;20401;-23
2022/05/02 10:47:14;;;;;;;16.25;4.28;;;;;;;17.52;55.67;96464.72;10370256;28;20048;-22
2022/05/02 10:52:50;;;;;;;11.82;4.13;;;;;;;17.51;55.66;96463.03;10352583;28;20041;-22
2022/05/02 10:57:53;;;;;;;8.82;4.60;;;;;;;17.51;55.05;96465.56;10334999;28;20394;-23
2022/05/02 11:02:56;;;;;;;3.55;2.70;;;;;;;17.47;54.42;96458.78;10327879;28;20042;-22
2022/05/02 11:08:07;;;;;;;4.97;3.03;;;;;;;17.49;54.32;96459.66;10329143;28;20042;-23
2022/05/02 11:13:11;;;;;;;4.25;2.85;;;;;;;17.46;54.18;96450.38;10342937;28;20046;-23
2022/05/02 11:24:17;;;;;;;10.57;4.57;;;;;;;17.46;54.65;96447.00;10328620;28;20045;-23
2022/05/02 11:29:44;;;;;;;5.97;3.20;;;;;;;17.47;54.23;96436.03;10327910;28;20149;-23
2022/05/02 11:35:12;;;;;;;5.30;4.38;;;;;;;17.48;56.17;96433.50;10327338;28;20046;-23
2022/05/02 11:40:13;;;;;;;3.80;3.05;;;;;;;17.49;54.64;96431.81;10328633;28;20073;-23
2022/05/02 11:45:17;;;;;;;4.75;4.30;;;;;;;17.53;57.01;96428.44;10328084;28;20042;-23
2022/05/02 11:50:22;;;;;;;8.90;5.18;;;;;;;17.56;56.74;96425.91;10327892;28;20050;-24
2022/05/02 11:55:28;;;;;;;4.68;3.53;;;;;;;17.50;54.83;96413.25;10328173;28;20030;-23
2022/05/02 12:00:34;;;;;;;7.70;4.40;;;;;;;17.50;55.50;96415.78;10327229;28;20034;-23
2022/05/02 12:05:41;;;;;;;4.38;3.00;;;;;;;17.49;54.29;96414.09;10326878;28;20149;-25
2022/05/02 12:10:46;;;;;;;4.47;4.07;;;;;;;17.47;54.24;96420.84;10327103;28;20038;-22
2022/05/02 12:16:03;;;;;;;3.22;2.92;;;;;;;17.45;54.27;96407.34;10344547;28;20045;-25
2022/05/02 12:21:05;;;;;;;4.50;2.95;;;;;;;17.43;54.21;96406.50;10340363;28;20412;-24
2022/05/02 12:26:18;;;;;;;6.15;4.35;;;;;;;17.45;54.91;96405.69;10340266;28;20042;-25
2022/05/02 12:31:29;;;;;;;4.97;4.15;;;;;;;17.45;54.93;96407.34;10372220;28;20045;-24
2022/05/02 12:36:44;;;;;;;6.53;4.65;;;;;;;17.46;55.95;96406.50;10367569;28;20026;-22
2022/05/02 12:41:47;;;;;;;3.78;3.30;;;;;;;17.44;54.59;96404.00;10340827;28;20044;-24
2022/05/02 12:46:50;;;;;;;4.22;3.83;;;;;;;17.43;55.49;96404.84;10339731;28;20512;-22
2022/05/02 12:51:55;;;;;;;9.23;6.00;;;;;;;17.50;56.42;96406.50;10371914;28;20111;-22
2022/05/02 13:02:45;;;;;;;5.43;4.70;;;;;;;17.51;55.23;96402.28;10339986;28;20073;-23
2022/05/02 13:07:49;;;;;;;5.70;3.92;;;;;;;17.46;55.54;96394.69;10341840;28;20500;-22
2022/05/02 13:12:58;;;;;;;5.18;4.40;;;;;;;17.46;55.75;96403.97;10363060;28;20037;-22
2022/05/02 13:18:02;;;;;;;4.55;3.42;;;;;;;17.43;55.40;96396.38;10380144;28;20026;-22
2022/05/02 13:23:04;;;;;;;4.45;3.65;;;;;;;17.44;54.54;96390.47;10352372;28;20073;-23
2022/05/02 13:28:05;;;;;;;3.90;3.53;;;;;;;17.42;54.56;96384.59;10335350;28;20042;-22
2022/05/02 13:33:09;;;;;;;4.93;3.20;;;;;;;17.43;54.47;96381.22;10392688;28;20123;-23
2022/05/02 13:38:23;;;;;;;4.00;3.38;;;;;;;17.39;54.58;96370.25;10351252;28;20048;-23
2022/05/02 13:43:48;;;;;;;3.35;3.05;;;;;;;17.42;54.46;96379.53;10331996;28;20034;-22
2022/05/02 13:49:08;;;;;;;4.80;3.08;;;;;;;17.42;54.62;96377.81;10331663;28;20038;-24
2022/05/02 13:54:24;;;;;;;4.53;4.13;;;;;;;17.42;56.43;96374.47;10331671;28;20049;-23
2022/05/02 13:59:53;;;;;;;6.25;4.93;;;;;;;17.55;57.01;96376.13;10331498;28;20037;-22
2022/05/02 14:04:57;;;;;;;4.75;4.05;;;;;;;17.47;57.03;96362.63;10334187;28;20044;-23
2022/05/02 14:09:59;;;;;;;4.18;3.78;;;;;;;17.51;55.44;96369.38;10370450;28;20038;-22
2022/05/02 14:15:03;;;;;;;7.30;4.07;;;;;;;17.46;55.44;96366.00;10337563;28;20062;-22
2022/05/02 14:20:19;;;;;;;4.70;4.20;;;;;;;17.46;55.81;96366.00;10370068;28;20034;-23
2022/05/02 14:25:31;;;;;;;7.57;4.03;;;;;;;17.46;55.43;96366.00;10366857;28;20042;-22
2022/05/02 14:30:35;;;;;;;5.95;3.97;;;;;;;17.45;54.78;96364.31;10349224;28;20092;-22
2022/05/02 14:35:38;;;;;;;7.60;3.38;;;;;;;17.44;54.74;96363.50;10384943;28;20045;-23
2022/05/02 14:40:40;;;;;;;7.88;3.67;;;;;;;17.42;54.39;96352.50;10328994;28;20108;-24
2022/05/02 14:45:42;;;;;;;7.10;4.15;;;;;;;17.42;54.29;96361.81;10329636;28;20082;-25
2022/05/02 14:50:48;;;;;;;6.68;3.50;;;;;;;17.40;54.58;96356.75;10330022;28;20104;-23
2022/05/02 14:55:54;;;;;;;5.30;3.97;;;;;;;17.40;54.75;96356.75;10336473;28;20101;-23
2022/05/02 15:01:02;;;;;;;12.10;5.18;;;;;;;17.43;57.05;96350.84;10370446;28;20507;-23
2022/05/02 15:06:04;;;;;;;3.83;3.40;;;;;;;17.52;57.47;96353.34;10351691;28;20518;-23
2022/05/02 15:11:14;;;;;;;5.03;3.80;;;;;;;17.54;57.17;96344.91;10338265;28;20030;-22
2022/05/02 15:16:26;;;;;;;4.63;3.58;;;;;;;17.49;56.33;96340.72;10369299;28;21260;-22
2022/05/02 15:21:27;;;;;;;3.75;3.35;;;;;;;17.46;55.33;96338.16;10349214;28;20042;-22
2022/05/02 15:26:50;;;;;;;4.60;3.45;;;;;;;17.45;54.89;96339.03;10340069;28;20038;-23
2022/05/02 15:37:19;;;;;;;5.15;3.40;;;;;;;17.42;55.21;96333.97;10363170;28;20034;-24
2022/05/02 15:42:19;;;;;;;5.50;3.70;;;;;;;17.45;55.61;96333.97;10347166;28;20488;-22
2022/05/02 15:47:25;;;;;;;3.20;2.90;;;;;;;17.43;54.52;96333.13;10344168;28;20038;-23
2022/05/02 15:52:27;;;;;;;3.08;2.78;;;;;;;17.42;54.46;96331.44;10326549;28;20072;-22
2022/05/02 15:57:45;;;;;;;7.15;2.63;;;;;;;17.42;54.30;96331.44;10327137;28;20060;-23
2022/05/02 16:03:04;;;;;;;3.53;2.95;;;;;;;17.43;54.20;96333.13;10327512;28;20093;-22
2022/05/02 16:13:36;;;;;;;6.18;4.00;;;;;;;17.58;57.48;96335.63;10326687;28;20144;-22
2022/05/02 16:18:39;;;;;;;8.50;3.60;;;;;;;17.63;56.00;96331.38;10362323;28;20513;-23
2022/05/02 16:23:43;;;;;;;2.60;2.28;;;;;;;17.57;54.36;96333.94;10346120;28;20023;-23
2022/05/02 16:28:49;;;;;;;8.55;4.07;;;;;;;17.55;54.43;96335.63;10326719;28;20035;-25
2022/05/02 16:33:59;;;;;;;16.05;5.65;;;;;;;17.54;54.27;96336.47;10386615;28;20449;-24
2022/05/02 16:38:59;;;;;;;9.00;4.35;;;;;;;17.52;54.08;96331.44;10327117;28;20034;-23
2022/05/02 16:44:01;;;;;;;8.40;4.30;;;;;;;17.48;54.03;96333.97;10325726;28;20495;-23
2022/05/02 16:49:05;;;;;;;30.42;5.82;;;;;;;17.51;54.15;96336.50;10330156;28;20035;-23
2022/05/02 16:54:06;;;;;;;14.73;4.95;;;;;;;17.50;54.32;96324.69;10357320;28;20038;-24
2022/05/02 16:59:06;;;;;;;31.58;7.72;;;;;;;17.49;54.34;96335.66;10359265;28;20046;-24
2022/05/02 17:04:10;;;;;;;15.32;5.60;;;;;;;17.49;54.14;96328.06;10366859;28;20061;-23
2022/05/02 17:09:12;;;;;;;10.38;4.57;;;;;;;17.50;54.23;96334.81;10369849;28;20046;-23
2022/05/02 17:14:13;;;;;;;29.25;10.85;;;;;;;17.55;56.71;96330.56;10360935;28;20041;-23
2022/05/02 17:19:20;;;;;;;24.73;11.00;;;;;;;17.60;57.44;96339.84;10356623;28;20135;-23
2022/05/02 17:24:22;;;;;;;26.25;9.95;;;;;;;17.62;57.47;96349.94;10360952;28;20164;-24
2022/05/02 17:29:28;;;;;;;15.85;5.65;;;;;;;17.58;54.59;96348.28;10336533;28;20058;-22
2022/05/02 17:34:41;;;;;;;5.43;3.83;;;;;;;17.55;54.13;96345.75;10336115;28;20041;-23
2022/05/02 17:39:46;;;;;;;5.90;4.30;;;;;;;17.51;54.06;96349.97;10332370;28;20806;-23
2022/05/02 17:44:51;;;;;;;12.65;4.70;;;;;;;17.52;54.36;96345.75;10331995;28;20043;-24
2022/05/02 17:49:54;;;;;;;9.30;4.35;;;;;;;17.49;54.03;96346.59;10336968;28;20030;-23
2022/05/02 17:54:56;;;;;;;9.55;5.30;;;;;;;17.47;54.21;96344.91;10373469;28;20100;-23
2022/05/02 18:00:05;;;;;;;7.07;4.28;;;;;;;17.48;54.16;96352.50;10327971;28;20105;-23
2022/05/02 18:05:30;;;;;;;5.60;3.83;;;;;;;17.46;54.16;96350.81;10347381;28;20496;-24
2022/05/02 18:10:30;;;;;;;6.63;4.70;;;;;;;17.45;54.11;96351.66;10362975;28;20042;-24
2022/05/02 18:15:32;;;;;;;8.75;3.95;;;;;;;17.45;54.19;96365.19;10325783;28;20053;-23
2022/05/02 18:20:34;;;;;;;11.95;6.70;;;;;;;17.52;57.07;96360.94;10327392;28;20595;-24
2022/05/02 18:25:46;;;;;;;15.18;6.70;;;;;;;17.61;57.05;96363.44;10325602;28;20516;-24
2022/05/02 18:30:59;;;;;;;9.68;5.93;;;;;;;17.58;56.93;96358.41;10368109;28;20048;-23
2022/05/02 18:36:07;;;;;;;11.82;5.70;;;;;;;17.52;54.69;96371.94;10372620;28;20057;-24
2022/05/02 18:41:20;;;;;;;8.05;4.43;;;;;;;17.46;54.52;96371.06;10356757;28;20085;-23
2022/05/02 18:57:12;;;;;;;8.68;4.50;;;;;;;17.36;55.61;96374.47;10351183;28;20041;-24
2022/05/02 19:02:16;;;;;;;8.15;3.63;;;;;;;17.38;54.33;96375.28;10365622;28;20140;-23
2022/05/02 19:07:18;;;;;;;8.25;3.08;;;;;;;17.40;54.30;96381.22;10364054;28;20046;-23
2022/05/02 19:12:21;;;;;;;13.45;5.60;;;;;;;17.40;58.09;96397.22;10344809;28;20042;-23
2022/05/02 19:17:26;;;;;;;5.93;3.45;;;;;;;17.41;54.63;96408.22;10325455;28;20034;-22
2022/05/02 19:22:38;;;;;;;6.25;3.65;;;;;;;17.30;54.27;96394.66;10359104;28;20099;-22
2022/05/02 19:27:50;;;;;;;13.20;5.93;;;;;;;17.56;59.45;96410.72;10340597;28;20296;-22
2022/05/02 19:33:05;;;;;;;11.30;6.13;;;;;;;17.63;59.13;96417.44;10396616;28;20029;-23
2022/05/02 19:44:07;;;;;;;11.23;5.40;;;;;;;17.51;54.97;96430.13;10339335;28;20045;-22
2022/05/02 19:49:08;;;;;;;7.15;3.72;;;;;;;17.41;54.40;96424.22;10359958;28;20112;-23
2022/05/02 19:54:08;;;;;;;7.78;3.10;;;;;;;17.38;54.80;96424.22;10371756;28;20119;-24
2022/05/02 19:59:09;;;;;;;4.10;3.05;;;;;;;17.45;54.26;96432.66;10367473;28;20037;-23
2022/05/02 20:04:09;;;;;;;4.90;3.10;;;;;;;17.48;54.55;96437.72;10377264;28;20026;-23
2022/05/02 20:09:10;;;;;;;7.53;3.70;;;;;;;17.50;54.30;96433.50;10367435;28;20034;-22
2022/05/02 20:14:10;;;;;;;8.93;3.37;;;;;;;17.51;54.45;96437.72;10362024;28;20038;-25
2022/05/02 20:19:10;;;;;;;5.87;4.00;;;;;;;17.53;54.26;96449.53;10365543;28;20026;-23
2022/05/02 20:24:14;;;;;;;7.72;3.50;;;;;;;17.52;54.32;96445.31;10348533;28;20053;-23
2022/05/02 20:29:17;;;;;;;4.82;3.20;;;;;;;17.54;54.42;96452.91;10361891;28;20038;-23
2022/05/02 20:39:36;;;;;;;8.88;5.50;;;;;;;17.66;59.01;96450.38;10333619;28;20117;-23
2022/05/02 20:44:56;;;;;;;8.47;5.00;;;;;;;17.65;58.74;96446.97;10334780;28;20416;-23
2022/05/02 20:49:58;;;;;;;7.50;3.88;;;;;;;17.58;54.57;96447.00;10342422;28;20354;-22
2022/05/02 20:54:59;;;;;;;6.10;3.50;;;;;;;17.55;54.41;96446.97;10334716;28;20114;-22
2022/05/02 21:00:00;;;;;;;5.00;3.60;;;;;;;17.55;54.46;96452.03;10334360;28;20026;-22
2022/05/02 21:05:00;;;;;;;5.07;3.20;;;;;;;17.52;54.17;96441.94;10333827;28;20084;-23
2022/05/02 21:10:01;;;;;;;7.15;4.32;;;;;;;17.51;54.24;96437.72;10333785;28;20386;-23
2022/05/02 21:15:16;;;;;;;5.37;3.10;;;;;;;17.47;54.40;96428.44;10333677;28;20034;-23
2022/05/02 21:20:44;;;;;;;5.68;3.20;;;;;;;17.49;54.50;96434.34;10333234;28;20045;-23
2022/05/02 21:25:52;;;;;;;4.95;3.25;;;;;;;17.49;54.58;96421.69;10332677;28;20030;-24
2022/05/02 21:31:05;;;;;;;3.40;2.85;;;;;;;17.50;54.32;96424.22;10356873;28;20033;-23
2022/05/02 21:36:07;;;;;;;5.97;3.40;;;;;;;17.49;54.57;96425.06;10391754;28;20037;-23
2022/05/02 21:41:10;;;;;;;6.70;4.68;;;;;;;17.58;58.73;96426.75;10332891;28;20062;-23
2022/05/02 21:46:10;;;;;;;14.45;5.88;;;;;;;17.65;59.47;96428.44;10332646;28;20030;-22
2022/05/02 21:51:10;;;;;;;8.60;5.13;;;;;;;17.66;59.05;96425.06;10336087;28;20043;-24
2022/05/02 21:56:11;;;;;;;3.53;3.13;;;;;;;17.56;55.46;96423.38;10332007;28;20046;-22
2022/05/02 22:01:11;;;;;;;3.70;2.90;;;;;;;17.51;54.56;96425.06;10332110;28;20030;-23
2022/05/02 22:06:12;;;;;;;6.30;3.30;;;;;;;17.50;54.49;96420.84;10331170;28;20832;-24
2022/05/02 22:11:13;;;;;;;6.22;3.25;;;;;;;17.40;54.49;96406.53;10330971;28;20031;-23
2022/05/02 22:16:13;;;;;;;4.43;3.03;;;;;;;17.47;54.70;96418.31;10330715;28;20039;-24
2022/05/02 22:21:13;;;;;;;5.57;3.07;;;;;;;17.46;54.27;96421.69;10330896;28;20030;-23
2022/05/02 22:26:14;;;;;;;4.53;3.23;;;;;;;17.44;54.52;96423.38;10330165;28;20861;-23
2022/05/02 22:31:14;;;;;;;4.00;3.30;;;;;;;17.47;54.49;96418.31;10360522;28;20350;-24
2022/05/02 22:36:15;;;;;;;3.90;3.13;;;;;;;17.47;54.57;96418.31;10378137;28;20045;-23
2022/05/02 22:41:16;;;;;;;4.00;2.70;;;;;;;17.46;54.41;96431.81;10340825;28;20040;-23
2022/05/02 22:46:17;;;;;;;8.50;5.05;;;;;;;17.51;58.87;96430.94;10370078;28;20120;-22
2022/05/02 22:51:17;;;;;;;6.67;4.30;;;;;;;17.61;58.98;96434.31;10366288;28;20040;-23
2022/05/02 22:56:18;;;;;;;9.23;4.65;;;;;;;17.60;59.06;96423.38;10368795;28;20484;-23
2022/05/02 23:01:29;;;;;;;5.80;4.07;;;;;;;17.57;55.54;96425.06;10369335;28;20033;-23
2022/05/02 23:06:35;;;;;;;4.88;3.20;;;;;;;17.53;55.20;96421.69;10337588;28;20080;-23
2022/05/02 23:11:38;;;;;;;5.40;3.20;;;;;;;17.51;54.47;96417.47;10328994;28;20125;-25
2022/05/02 23:16:39;;;;;;;4.97;2.92;;;;;;;17.50;54.35;96418.31;10328668;28;20065;-23
2022/05/02 23:21:41;;;;;;;4.88;3.28;;;;;;;17.49;54.40;96421.69;10344599;28;20481;-24
2022/05/02 23:26:42;;;;;;;4.75;3.35;;;;;;;17.50;54.59;96408.19;10354128;28;20060;-22
2022/05/02 23:31:49;;;;;;;3.72;3.30;;;;;;;17.51;54.39;96404.81;10366189;28;20033;-23
2022/05/02 23:37:15;;;;;;;4.97;2.90;;;;;;;17.49;54.45;96404.00;10373106;28;20049;-23
2022/05/02 23:42:20;;;;;;;3.77;2.63;;;;;;;17.49;54.49;96391.34;10346436;28;20042;-23
2022/05/02 23:47:53;;;;;;;3.40;3.10;;;;;;;17.46;54.49;96389.66;10327985;28;20038;-23
2022/05/02 23:53:04;;;;;;;6.90;4.22;;;;;;;17.45;58.81;96380.38;10364898;28;20483;-23
2022/05/02 23:58:30;;;;;;;4.30;3.65;;;;;;;17.62;59.25;96400.56;10342055;28;20046;-23
